Time;durP1;ratioP1;P1;durP2;ratioP2;P2;SDS_P1;SDS_P2;PMS_P1;PMS_P2;Temp;Humidity;BMP_temperature;BMP_pressure;BME280_temperature;BME280_humidity;BME280_pressure;Samples;Min_cycle;Max_cycle;Signal;HPM_P1;HPM_P2
2022/05/24 00:01:17;;;;;;;10.00;5.97;;;15.60;89.10;;;;;;5072579;28;20183;-74
2022/05/24 00:03:44;;;;;;;8.20;5.90;;;15.70;89.10;;;;;;5072497;28;20204;-77
2022/05/24 00:06:14;;;;;;;10.57;5.03;;;15.80;89.10;;;;;;5075850;28;20199;-75
2022/05/24 00:08:41;;;;;;;12.17;4.93;;;15.90;88.20;;;;;;5076363;28;20190;-77
2022/05/24 00:11:09;;;;;;;11.17;4.97;;;15.90;87.90;;;;;;5076247;28;20744;-76
2022/05/24 00:13:36;;;;;;;9.97;4.67;;;15.90;87.80;;;;;;5075340;28;20270;-78
2022/05/24 00:16:04;;;;;;;9.23;4.43;;;16.00;87.80;;;;;;5075405;28;20175;-80
2022/05/24 00:18:32;;;;;;;13.57;4.40;;;16.10;87.90;;;;;;5078519;28;20620;-80
2022/05/24 00:21:01;;;;;;;7.07;4.53;;;16.10;87.40;;;;;;5096524;28;20176;-78
2022/05/24 00:23:30;;;;;;;11.53;4.17;;;16.20;87.80;;;;;;5076072;28;20221;-77
2022/05/24 00:26:21;;;;;;;11.07;4.27;;;16.10;87.50;;;;;;5075629;28;20190;-76
2022/05/24 00:28:49;;;;;;;11.23;4.73;;;16.20;87.80;;;;;;5075181;28;20650;-78
2022/05/24 00:31:16;;;;;;;9.57;3.67;;;16.30;87.60;;;;;;5074992;28;20190;-78
2022/05/24 00:33:43;;;;;;;7.53;3.70;;;16.30;87.50;;;;;;5074529;28;20660;-80
2022/05/24 00:36:11;;;;;;;8.90;3.67;;;16.30;87.20;;;;;;5074816;28;20243;-76
2022/05/24 00:38:39;;;;;;;8.80;3.70;;;16.40;87.20;;;;;;5075835;28;20197;-81
2022/05/24 00:41:56;;;;;;;8.80;3.70;;;16.50;86.80;;;;;;5075645;28;20606;-82
2022/05/24 00:44:33;;;;;;;4.87;3.60;;;16.60;86.80;;;;;;5075688;28;20233;-81
2022/05/24 00:47:17;;;;;;;7.83;3.33;;;16.80;86.70;;;;;;5075828;28;20262;-83
2022/05/24 00:49:59;;;;;;;8.27;2.83;;;16.80;86.10;;;;;;5074316;28;20200;-82
2022/05/24 00:52:51;;;;;;;5.27;2.77;;;17.00;85.80;;;;;;5075888;28;20178;-82
2022/05/24 00:55:22;;;;;;;13.30;2.93;;;17.20;85.80;;;;;;5075894;28;20264;-80
2022/05/24 00:58:07;;;;;;;9.40;3.03;;;17.10;84.70;;;;;;5075646;28;20213;-83
2022/05/24 01:00:35;;;;;;;6.83;2.70;;;17.20;84.80;;;;;;5075311;28;20189;-85
2022/05/24 01:03:03;;;;;;;7.37;2.00;;;17.30;84.50;;;;;;5074201;28;20201;-84
2022/05/24 01:05:31;;;;;;;8.03;2.30;;;17.20;83.30;;;;;;5075340;28;20244;-80
2022/05/24 01:07:59;;;;;;;5.90;2.33;;;17.20;83.30;;;;;;5075252;28;20312;-83
2022/05/24 01:10:51;;;;;;;5.67;2.03;;;17.30;83.30;;;;;;5075571;28;20203;-82
2022/05/24 01:13:29;;;;;;;9.10;2.40;;;17.30;83.10;;;;;;5075318;28;20511;-85
2022/05/24 01:15:56;;;;;;;8.37;1.90;;;17.40;82.90;;;;;;5074362;28;20667;-84
2022/05/24 01:18:24;;;;;;;6.80;2.10;;;17.60;83.10;;;;;;5075469;28;20791;-84
2022/05/24 01:21:08;;;;;;;7.60;2.43;;;17.60;82.00;;;;;;5075494;28;20570;-82
2022/05/24 01:23:54;;;;;;;7.53;2.10;;;17.60;82.70;;;;;;5055630;28;20210;-85
2022/05/24 01:26:45;;;;;;;9.57;2.37;;;17.70;82.30;;;;;;5054966;28;20190;-81
2022/05/24 01:29:12;;;;;;;6.57;2.10;;;17.80;82.00;;;;;;5055252;28;20744;-84
2022/05/24 01:37:12;;;;;;;8.13;2.20;;;18.30;81.10;;;;;;5058293;28;20214;-80
2022/05/24 01:39:41;;;;;;;7.17;2.10;;;18.30;80.70;;;;;;5094910;28;20174;-81
2022/05/24 01:42:10;;;;;;;5.13;2.30;;;18.30;80.40;;;;;;5094721;28;20171;-80
2022/05/24 01:44:55;;;;;;;5.20;1.90;;;18.30;80.80;;;;;;5070105;28;20637;-84
2022/05/24 01:47:24;;;;;;;3.40;1.80;;;18.30;80.00;;;;;;5058044;28;20192;-79
2022/05/24 01:49:56;;;;;;;7.93;2.10;;;18.40;79.60;;;;;;5073282;28;20175;-79
2022/05/24 01:52:27;;;;;;;7.90;2.30;;;18.50;79.40;;;;;;5070582;28;20613;-79
2022/05/24 01:55:00;;;;;;;6.87;2.13;;;18.70;79.60;;;;;;5074615;28;20232;-83
2022/05/24 01:57:32;;;;;;;4.37;1.70;;;18.60;79.40;;;;;;5074302;28;20575;-84
2022/05/24 02:00:01;;;;;;;3.53;1.37;;;18.50;79.10;;;;;;5071786;28;20180;-77
2022/05/24 02:02:29;;;;;;;4.53;1.13;;;18.20;79.80;;;;;;5072582;28;20206;-85
2022/05/24 02:04:56;;;;;;;6.37;1.23;;;17.90;79.40;;;;;;5076721;28;20225;-81
2022/05/24 02:07:26;;;;;;;2.37;1.20;;;17.70;80.70;;;;;;5068867;28;20551;-82
2022/05/24 02:09:56;;;;;;;4.67;1.07;;;17.60;80.80;;;;;;5082161;28;20189;-78
2022/05/24 02:12:40;;;;;;;4.73;1.00;;;17.70;80.80;;;;;;5082227;28;20292;-83
2022/05/24 02:15:11;;;;;;;5.77;1.50;;;17.50;80.70;;;;;;5074173;28;20183;-78
2022/05/24 02:18:02;;;;;;;8.10;1.50;;;17.40;81.10;;;;;;5075527;28;20254;-82
2022/05/24 02:20:37;;;;;;;5.70;1.47;;;17.30;83.00;;;;;;5094399;28;20184;-78
2022/05/24 02:23:05;;;;;;;10.33;2.10;;;17.10;83.20;;;;;;5077862;28;20554;-75
2022/05/24 02:25:35;;;;;;;6.23;2.43;;;16.90;85.20;;;;;;5091527;28;20201;-74
2022/05/24 02:28:08;;;;;;;4.67;2.00;;;16.60;86.40;;;;;;5089530;28;20179;-73
2022/05/24 02:30:37;;;;;;;9.37;2.33;;;16.40;86.70;;;;;;5073896;28;20269;-72
2022/05/24 02:33:04;;;;;;;3.60;1.67;;;16.20;87.90;;;;;;5073691;28;20250;-74
2022/05/24 02:35:32;;;;;;;6.03;2.00;;;16.00;88.70;;;;;;5073855;28;20164;-73
2022/05/24 02:37:59;;;;;;;5.77;1.80;;;15.90;89.30;;;;;;5076672;28;20211;-73
2022/05/24 02:43:13;;;;;;;5.73;2.70;;;15.80;90.10;;;;;;5053969;28;20272;-74
2022/05/24 02:45:40;;;;;;;7.17;3.07;;;15.70;90.50;;;;;;5063615;28;20569;-74
2022/05/24 02:48:09;;;;;;;6.90;3.07;;;15.70;90.90;;;;;;5062659;28;20188;-72
2022/05/24 02:50:36;;;;;;;4.40;2.50;;;15.60;90.90;;;;;;5085489;28;20229;-72
2022/05/24 02:53:04;;;;;;;6.27;2.70;;;15.50;91.10;;;;;;5078313;28;20226;-74
2022/05/24 02:55:31;;;;;;;5.13;2.40;;;15.50;91.00;;;;;;5073525;28;20190;-73
2022/05/24 02:57:59;;;;;;;4.33;2.27;;;15.50;91.10;;;;;;5073100;28;20176;-74
2022/05/24 03:00:27;;;;;;;4.17;2.43;;;15.50;91.00;;;;;;5072467;28;20191;-73
2022/05/24 03:02:55;;;;;;;2.73;1.80;;;15.40;90.40;;;;;;5084328;28;20651;-73
2022/05/24 03:05:24;;;;;;;4.30;1.90;;;15.50;90.40;;;;;;5079650;28;20298;-74
2022/05/24 03:10:37;;;;;;;4.10;1.90;;;15.50;90.50;;;;;;5087180;28;20187;-73
2022/05/24 03:15:51;;;;;;;2.60;1.50;;;15.70;90.50;;;;;;5056730;28;20238;-73
2022/05/24 03:18:19;;;;;;;3.30;2.07;;;15.70;90.30;;;;;;5073077;28;20559;-73
2022/05/24 03:20:47;;;;;;;2.17;1.60;;;15.70;90.50;;;;;;5072234;28;20177;-73
2022/05/24 03:23:16;;;;;;;2.70;1.80;;;15.70;90.60;;;;;;5069558;28;20263;-73
2022/05/24 03:25:44;;;;;;;2.60;1.87;;;15.70;90.30;;;;;;5072858;28;20212;-74
2022/05/24 03:28:11;;;;;;;4.17;2.27;;;15.80;90.30;;;;;;5071915;28;20588;-73
2022/05/24 03:30:43;;;;;;;3.83;2.53;;;15.80;90.00;;;;;;5073083;28;20263;-73
2022/05/24 03:33:10;;;;;;;4.50;2.00;;;15.80;90.20;;;;;;5071016;28;20210;-73
2022/05/24 03:35:38;;;;;;;4.57;2.30;;;15.80;90.40;;;;;;5073230;28;20183;-72
2022/05/24 03:38:06;;;;;;;4.10;2.67;;;16.00;90.70;;;;;;5092944;28;20182;-73
2022/05/24 03:40:34;;;;;;;7.07;3.07;;;16.00;90.70;;;;;;5068273;28;20181;-72
2022/05/24 03:43:02;;;;;;;4.90;2.70;;;16.20;90.70;;;;;;5067241;28;20707;-72
2022/05/24 03:45:30;;;;;;;3.80;2.40;;;16.30;90.60;;;;;;5071747;28;20277;-72
2022/05/24 03:47:57;;;;;;;4.30;2.10;;;16.30;90.40;;;;;;5078341;28;20270;-73
2022/05/24 03:50:25;;;;;;;4.50;2.33;;;16.40;90.00;;;;;;5069178;28;20184;-72
2022/05/24 03:52:52;;;;;;;5.13;2.30;;;16.30;89.60;;;;;;5070769;28;20639;-71
2022/05/24 03:55:20;;;;;;;6.67;2.73;;;16.30;89.30;;;;;;5073899;28;20177;-72
2022/05/24 03:58:02;;;;;;;3.93;2.37;;;16.30;89.00;;;;;;5083438;28;20191;-72
2022/05/24 04:00:36;;;;;;;6.47;2.43;;;16.30;89.00;;;;;;5069617;28;20192;-72
2022/05/24 04:03:04;;;;;;;8.03;2.93;;;16.50;89.10;;;;;;5060884;28;21112;-72
2022/05/24 04:05:32;;;;;;;3.97;2.60;;;16.50;89.20;;;;;;5068341;28;20279;-74
2022/05/24 04:08:01;;;;;;;4.27;2.63;;;16.60;89.60;;;;;;5069287;28;20181;-72
2022/05/24 04:10:30;;;;;;;6.13;2.50;;;16.70;89.30;;;;;;5070246;28;20228;-72
2022/05/24 04:12:57;;;;;;;3.53;2.40;;;17.10;89.10;;;;;;5072715;28;20218;-72
2022/05/24 04:15:25;;;;;;;7.80;2.50;;;17.60;86.10;;;;;;5064333;28;20712;-72
2022/05/24 04:17:53;;;;;;;5.70;2.20;;;17.80;85.10;;;;;;5071210;28;20183;-72
2022/05/24 04:20:22;;;;;;;3.07;1.70;;;18.40;85.40;;;;;;5070986;28;20270;-72
2022/05/24 04:22:52;;;;;;;8.07;2.33;;;18.80;82.70;;;;;;5072263;28;20187;-72
2022/05/24 04:25:20;;;;;;;4.83;1.70;;;18.60;83.20;;;;;;5071544;28;20221;-72
2022/05/24 04:27:48;;;;;;;9.03;2.10;;;18.40;82.00;;;;;;5071773;28;20718;-72
2022/05/24 04:30:16;;;;;;;6.77;1.70;;;18.20;83.10;;;;;;5065840;28;20539;-73
2022/05/24 04:32:44;;;;;;;5.10;1.70;;;18.30;83.60;;;;;;5069409;28;20191;-73
2022/05/24 04:35:11;;;;;;;7.07;1.43;;;18.10;82.40;;;;;;5071004;28;20546;-73
2022/05/24 04:37:39;;;;;;;6.00;1.50;;;18.60;82.00;;;;;;5070498;28;20190;-73
2022/05/24 04:40:07;;;;;;;4.90;1.30;;;19.50;79.10;;;;;;5069555;28;20175;-72
2022/05/24 04:42:34;;;;;;;3.17;1.33;;;20.00;77.90;;;;;;5069909;28;20272;-73
2022/05/24 04:45:06;;;;;;;4.77;1.30;;;20.20;75.60;;;;;;5070176;28;20272;-74
2022/05/24 04:47:34;;;;;;;2.50;1.20;;;20.00;75.10;;;;;;5070700;28;20179;-73
2022/05/24 04:50:05;;;;;;;2.57;1.27;;;19.60;75.70;;;;;;5069105;28;20191;-74
2022/05/24 04:52:36;;;;;;;7.13;1.30;;;20.20;74.60;;;;;;5072043;28;20554;-73
2022/05/24 04:55:07;;;;;;;4.93;1.13;;;20.60;72.50;;;;;;5071051;28;20179;-75
2022/05/24 04:57:34;;;;;;;4.13;1.40;;;20.40;72.90;;;;;;5067774;28;20273;-75
2022/05/24 05:00:04;;;;;;;6.37;1.63;;;20.60;72.30;;;;;;5075194;28;20237;-75
2022/05/24 05:02:31;;;;;;;3.83;1.27;;;20.50;72.30;;;;;;5070814;28;20186;-75
2022/05/24 05:04:58;;;;;;;5.70;1.57;;;21.00;71.50;;;;;;5072822;28;20227;-75
2022/05/24 05:07:26;;;;;;;3.63;1.40;;;21.30;70.40;;;;;;5071181;28;20676;-75
2022/05/24 05:09:53;;;;;;;6.13;1.53;;;21.00;71.90;;;;;;5070733;28;20187;-75
2022/05/24 05:12:21;;;;;;;2.97;0.97;;;21.20;69.40;;;;;;5073301;28;20187;-76
2022/05/24 05:14:48;;;;;;;6.27;1.00;;;21.50;68.40;;;;;;5073213;28;20184;-76
2022/05/24 05:17:18;;;;;;;2.33;1.20;;;21.60;69.00;;;;;;5071179;28;20591;-74
2022/05/24 05:19:47;;;;;;;3.63;1.30;;;21.20;66.80;;;;;;5071751;28;20190;-77
2022/05/24 05:22:16;;;;;;;3.60;1.13;;;21.50;67.00;;;;;;5071755;28;20562;-75
2022/05/24 05:24:43;;;;;;;2.20;0.80;;;21.50;63.70;;;;;;5074123;28;20219;-77
2022/05/24 05:27:11;;;;;;;3.50;0.80;;;21.80;60.90;;;;;;5073553;28;20191;-78
2022/05/24 05:32:30;;;;;;;1.30;0.60;;;21.80;61.50;;;;;;5072950;28;20688;-77
2022/05/24 05:35:01;;;;;;;2.17;0.77;;;22.40;60.40;;;;;;5071852;28;20786;-76
2022/05/24 05:37:30;;;;;;;1.20;0.70;;;22.40;59.80;;;;;;5072548;28;20186;-79
2022/05/24 05:40:00;;;;;;;3.13;0.70;;;22.30;58.60;;;;;;5070672;28;20194;-79
2022/05/24 05:42:27;;;;;;;1.37;0.80;;;22.60;59.90;;;;;;5074038;28;20206;-80
2022/05/24 05:44:54;;;;;;;0.80;0.60;;;23.00;57.10;;;;;;5073831;28;20227;-79
2022/05/24 05:47:22;;;;;;;1.30;0.73;;;23.00;56.40;;;;;;5070088;28;20183;-79
2022/05/24 05:49:49;;;;;;;1.20;0.60;;;23.20;56.80;;;;;;5073265;28;20179;-78
2022/05/24 05:52:17;;;;;;;3.70;0.80;;;22.20;58.60;;;;;;5072373;28;20184;-79
2022/05/24 05:54:44;;;;;;;1.47;0.63;;;22.00;60.10;;;;;;5074307;28;20187;-81
2022/05/24 05:57:12;;;;;;;2.03;1.00;;;22.60;58.10;;;;;;5071713;28;20678;-80
2022/05/24 05:59:39;;;;;;;3.67;1.00;;;22.30;58.40;;;;;;5071857;28;20570;-79
2022/05/24 06:02:08;;;;;;;4.07;1.00;;;22.20;59.30;;;;;;5072431;28;20184;-82
2022/05/24 06:04:35;;;;;;;2.93;1.10;;;22.30;59.50;;;;;;5067037;28;20218;-80
2022/05/24 06:07:03;;;;;;;1.70;1.03;;;22.40;57.90;;;;;;5067252;28;20653;-80
2022/05/24 06:09:31;;;;;;;2.83;1.20;;;22.10;58.40;;;;;;5071704;28;20183;-80
2022/05/24 06:11:59;;;;;;;2.60;1.00;;;21.20;62.10;;;;;;5073185;28;20188;-79
2022/05/24 06:14:26;;;;;;;1.80;1.13;;;20.50;65.00;;;;;;5071627;28;20197;-82
2022/05/24 06:16:54;;;;;;;5.63;1.20;;;20.30;67.20;;;;;;5071690;28;20666;-81
2022/05/24 06:19:21;;;;;;;4.53;1.00;;;20.20;67.40;;;;;;5072934;28;20236;-79
2022/05/24 06:21:48;;;;;;;5.93;1.27;;;19.80;70.10;;;;;;5072210;28;20179;-83
2022/05/24 06:24:16;;;;;;;2.33;1.13;;;19.50;70.20;;;;;;5070289;28;20264;-81
2022/05/24 06:26:43;;;;;;;4.10;1.17;;;19.30;71.90;;;;;;5071239;28;20183;-80
2022/05/24 06:29:11;;;;;;;3.03;1.00;;;18.80;72.10;;;;;;5073001;28;20198;-79
2022/05/24 06:31:42;;;;;;;2.93;1.10;;;18.50;73.80;;;;;;5071221;28;20201;-81
2022/05/24 06:34:09;;;;;;;5.00;1.40;;;18.30;75.30;;;;;;5071922;28;20172;-81
2022/05/24 06:36:36;;;;;;;4.67;1.47;;;18.20;75.80;;;;;;5072809;28;20506;-82
2022/05/24 06:39:04;;;;;;;3.53;1.47;;;18.10;76.10;;;;;;5071021;28;20528;-80
2022/05/24 06:41:32;;;;;;;7.13;1.13;;;18.00;76.30;;;;;;5072401;28;20187;-82
2022/05/24 06:43:59;;;;;;;3.07;1.33;;;17.90;76.30;;;;;;5072014;28;20310;-85
2022/05/24 06:46:26;;;;;;;3.87;1.40;;;17.80;77.10;;;;;;5074224;28;20239;-84
2022/05/24 06:48:54;;;;;;;2.40;1.10;;;17.60;77.30;;;;;;5073152;28;20209;-82
2022/05/24 06:51:23;;;;;;;4.10;1.20;;;17.40;78.10;;;;;;5088039;28;20238;-83
2022/05/24 06:53:51;;;;;;;3.73;1.33;;;17.30;78.30;;;;;;5081786;28;20656;-82
2022/05/24 06:56:19;;;;;;;2.27;1.37;;;17.10;79.20;;;;;;5070252;28;20550;-79
2022/05/24 06:58:46;;;;;;;2.13;1.40;;;17.00;79.80;;;;;;5062956;28;20182;-86
2022/05/24 07:04:00;;;;;;;2.93;1.50;;;16.80;80.90;;;;;;5078366;28;20241;-85
2022/05/24 07:06:27;;;;;;;5.80;1.63;;;16.60;81.10;;;;;;5073131;28;20183;-87
2022/05/24 07:08:55;;;;;;;4.47;1.60;;;16.50;81.70;;;;;;5074153;28;20179;-83
2022/05/24 07:11:23;;;;;;;5.53;1.67;;;16.40;82.50;;;;;;5073007;28;20178;-85
2022/05/24 07:13:50;;;;;;;4.87;1.57;;;16.30;83.00;;;;;;5081270;28;20673;-86
2022/05/24 07:16:17;;;;;;;4.97;1.90;;;16.20;83.20;;;;;;5074583;28;20473;-81
2022/05/24 07:18:46;;;;;;;5.53;1.57;;;16.10;83.90;;;;;;5074923;28;20574;-80
2022/05/24 07:21:13;;;;;;;4.07;1.87;;;16.10;84.50;;;;;;5088588;28;20179;-88
2022/05/24 07:23:42;;;;;;;3.63;1.83;;;16.00;84.80;;;;;;5072247;28;20542;-85
2022/05/24 07:26:19;;;;;;;3.73;1.63;;;15.90;85.20;;;;;;5064746;28;20175;-80
2022/05/24 07:28:46;;;;;;;7.70;2.10;;;15.80;85.60;;;;;;5066699;28;20253;-85
2022/05/24 07:31:14;;;;;;;7.90;1.97;;;15.80;86.20;;;;;;5072842;28;20216;-82
2022/05/24 07:33:42;;;;;;;5.23;1.77;;;15.70;86.10;;;;;;5072938;28;20180;-85
2022/05/24 07:36:10;;;;;;;6.90;1.60;;;15.70;86.20;;;;;;5078680;28;20636;-86
2022/05/24 07:38:38;;;;;;;3.97;1.50;;;15.60;86.60;;;;;;5079131;28;20182;-81
2022/05/24 07:46:40;;;;;;;4.67;2.70;;;15.50;87.40;;;;;;5071919;28;20204;-82
2022/05/24 07:49:07;;;;;;;7.20;3.00;;;15.50;87.30;;;;;;5072633;28;20189;-80
2022/05/24 07:51:35;;;;;;;5.70;2.80;;;15.40;87.60;;;;;;5072696;28;20694;-83
2022/05/24 07:54:03;;;;;;;8.30;3.20;;;15.30;87.60;;;;;;5072613;28;20239;-80
2022/05/24 07:56:31;;;;;;;6.17;3.27;;;15.30;87.70;;;;;;5071808;28;20209;-82
2022/05/24 07:58:58;;;;;;;6.10;2.70;;;15.20;87.80;;;;;;5073142;28;20637;-84
2022/05/24 08:01:27;;;;;;;6.60;3.10;;;15.20;88.10;;;;;;5072517;28;20584;-84
2022/05/24 08:03:55;;;;;;;6.37;2.80;;;15.10;88.60;;;;;;5059891;28;20551;-81
2022/05/24 08:06:23;;;;;;;8.70;3.37;;;15.10;88.90;;;;;;5071481;28;20253;-81
2022/05/24 08:08:50;;;;;;;6.63;3.13;;;15.00;88.90;;;;;;5056050;28;20189;-83
2022/05/24 08:11:18;;;;;;;7.90;2.90;;;15.00;89.30;;;;;;5052794;28;20192;-81
2022/05/24 08:13:45;;;;;;;7.83;3.17;;;14.90;89.30;;;;;;5054969;28;20176;-83
2022/05/24 08:16:12;;;;;;;8.97;3.57;;;14.90;89.50;;;;;;5065389;28;20183;-81
2022/05/24 08:18:40;;;;;;;7.80;3.67;;;14.90;89.60;;;;;;5060248;28;20630;-81
2022/05/24 08:21:08;;;;;;;8.27;3.43;;;14.80;89.70;;;;;;5067290;28;20175;-80
2022/05/24 08:23:35;;;;;;;10.63;3.90;;;14.80;90.00;;;;;;5072218;28;20203;-80
2022/05/24 08:26:03;;;;;;;6.60;3.60;;;14.80;90.00;;;;;;5072841;28;20271;-82
2022/05/24 08:28:30;;;;;;;13.17;3.63;;;14.70;90.10;;;;;;5076138;28;20171;-80
2022/05/24 08:30:57;;;;;;;9.13;3.87;;;14.70;90.30;;;;;;5076618;28;20213;-83
2022/05/24 08:33:26;;;;;;;9.67;4.37;;;14.80;90.40;;;;;;5081931;28;20243;-78
2022/05/24 08:35:54;;;;;;;6.23;3.80;;;14.80;90.40;;;;;;5077489;28;20189;-79
2022/05/24 08:38:23;;;;;;;11.03;5.30;;;14.70;90.40;;;;;;5076433;28;20167;-82
2022/05/24 08:40:51;;;;;;;12.93;5.37;;;14.70;90.60;;;;;;5075519;28;20179;-83
2022/05/24 08:43:37;;;;;;;8.83;6.13;;;14.70;90.60;;;;;;5068894;28;20571;-85
2022/05/24 08:49:05;;;;;;;10.73;6.20;;;14.70;90.50;;;;;;5075325;28;20184;-85
2022/05/24 08:51:57;;;;;;;14.33;6.33;;;14.70;90.70;;;;;;5078603;28;20546;-85
2022/05/24 08:54:38;;;;;;;9.03;5.30;;;14.70;90.80;;;;;;5072778;28;20180;-85
2022/05/24 08:57:12;;;;;;;11.87;6.20;;;14.80;90.70;;;;;;5094613;28;20259;-83
2022/05/24 08:59:58;;;;;;;8.93;5.20;;;14.80;90.80;;;;;;5062955;28;20523;-85
2022/05/24 09:02:26;;;;;;;11.07;6.73;;;14.80;90.90;;;;;;5068804;28;20533;-81
2022/05/24 09:04:53;;;;;;;13.30;6.33;;;14.80;90.90;;;;;;5075387;28;20211;-85
2022/05/24 09:07:42;;;;;;;12.70;6.47;;;14.90;90.90;;;;;;5075811;28;20179;-86
2022/05/24 09:10:25;;;;;;;14.30;7.03;;;14.90;90.80;;;;;;5075825;28;20178;-85
2022/05/24 09:13:11;;;;;;;16.57;6.80;;;14.90;90.70;;;;;;5075379;28;20349;-83
2022/05/24 09:15:38;;;;;;;14.87;7.77;;;14.90;90.70;;;;;;5075754;28;20176;-84
2022/05/24 09:18:11;;;;;;;13.67;8.10;;;15.00;90.80;;;;;;5074088;28;20592;-86
2022/05/24 09:20:42;;;;;;;13.83;9.23;;;14.90;90.70;;;;;;5086843;28;20216;-86
2022/05/24 09:23:16;;;;;;;23.00;13.90;;;14.80;90.80;;;;;;5079421;28;20237;-85
2022/05/24 09:25:58;;;;;;;29.30;18.70;;;14.80;91.10;;;;;;5068062;28;20612;-84
2022/05/24 09:28:46;;;;;;;29.50;20.77;;;14.90;91.40;;;;;;5083111;28;20176;-84
2022/05/24 09:31:30;;;;;;;27.47;20.63;;;14.80;91.10;;;;;;5081957;28;20207;-84
2022/05/24 09:34:05;;;;;;;19.03;15.00;;;14.80;91.10;;;;;;5087254;28;20182;-83
2022/05/24 09:36:39;;;;;;;17.10;11.90;;;14.80;91.20;;;;;;5095587;28;20173;-82
2022/05/24 09:39:37;;;;;;;19.77;11.63;;;14.80;91.10;;;;;;5080269;28;20178;-83
2022/05/24 09:42:07;;;;;;;16.90;11.40;;;14.80;91.10;;;;;;5074392;28;20172;-85
2022/05/24 09:44:50;;;;;;;13.17;8.43;;;14.80;91.00;;;;;;5074730;28;20243;-82
2022/05/24 09:47:34;;;;;;;15.53;9.73;;;14.80;90.90;;;;;;5074212;28;20641;-83
2022/05/24 09:50:34;;;;;;;14.37;8.23;;;14.90;91.00;;;;;;5060234;28;20529;-84
2022/05/24 09:53:28;;;;;;;14.70;8.10;;;14.90;90.70;;;;;;5069211;28;20229;-81
2022/05/24 09:55:59;;;;;;;12.23;6.10;;;14.80;90.80;;;;;;5072308;28;20178;-87
2022/05/24 09:58:50;;;;;;;12.73;5.77;;;14.80;90.90;;;;;;5079761;28;20160;-83
2022/05/24 10:01:31;;;;;;;13.70;5.17;;;14.90;91.00;;;;;;5076438;28;20207;-80
2022/05/24 10:04:36;;;;;;;11.23;5.23;;;14.90;90.90;;;;;;5082928;28;20210;-81
2022/05/24 10:07:08;;;;;;;10.27;6.07;;;14.90;91.10;;;;;;5075693;28;20178;-81
2022/05/24 10:09:58;;;;;;;14.27;6.20;;;15.00;91.30;;;;;;5074991;28;20597;-80
2022/05/24 10:12:33;;;;;;;9.27;5.83;;;15.00;91.20;;;;;;5074371;28;20221;-85
2022/05/24 10:15:28;;;;;;;12.43;6.30;;;15.00;91.50;;;;;;5075970;28;20264;-82
2022/05/24 10:18:23;;;;;;;14.70;7.43;;;15.00;91.30;;;;;;5073507;28;20238;-85
2022/05/24 10:21:17;;;;;;;9.33;6.63;;;15.00;91.10;;;;;;5056485;28;20179;-80
2022/05/24 10:24:06;;;;;;;13.43;7.30;;;14.90;91.40;;;;;;5054090;28;20215;-80
2022/05/24 10:26:52;;;;;;;13.13;7.37;;;14.80;91.20;;;;;;5071801;28;20176;-80
2022/05/24 10:29:28;;;;;;;9.47;7.00;;;14.80;91.60;;;;;;5072578;28;20176;-81
2022/05/24 10:32:05;;;;;;;10.57;6.63;;;14.80;91.60;;;;;;5074714;28;20242;-82
2022/05/24 10:38:19;;;;;;;11.40;7.37;;;14.80;91.50;;;;;;5075437;28;20201;-79
2022/05/24 10:40:55;;;;;;;11.87;7.33;;;14.80;91.70;;;;;;5062309;28;20164;-80
2022/05/24 10:43:55;;;;;;;10.23;6.43;;;14.80;91.90;;;;;;5070399;28;20242;-84
2022/05/24 10:46:38;;;;;;;11.97;6.83;;;14.70;92.00;;;;;;5073776;28;20199;-84
2022/05/24 10:49:14;;;;;;;11.27;6.73;;;14.70;92.10;;;;;;5070778;28;20168;-81
2022/05/24 10:51:48;;;;;;;11.83;8.03;;;14.70;92.00;;;;;;5069564;28;20684;-79
2022/05/24 10:54:24;;;;;;;11.53;8.70;;;14.60;91.90;;;;;;5071707;28;20202;-80
2022/05/24 10:57:00;;;;;;;14.20;8.03;;;14.50;92.10;;;;;;5072364;28;20171;-83
2022/05/24 10:59:49;;;;;;;14.17;8.20;;;14.50;92.30;;;;;;5072554;28;20175;-78
2022/05/24 11:02:24;;;;;;;9.80;7.30;;;14.50;92.50;;;;;;5080625;28;20183;-84
2022/05/24 11:05:14;;;;;;;13.90;7.77;;;14.50;92.70;;;;;;5072620;28;20285;-82
2022/05/24 11:07:41;;;;;;;14.67;7.80;;;14.50;92.70;;;;;;5073567;28;20600;-84
2022/05/24 11:10:28;;;;;;;15.40;7.47;;;14.40;92.80;;;;;;5073013;28;20183;-83
2022/05/24 11:13:02;;;;;;;11.83;7.00;;;14.40;92.70;;;;;;5070563;28;20273;-79
2022/05/24 11:15:46;;;;;;;10.93;7.53;;;14.30;92.90;;;;;;5071931;28;20305;-82
2022/05/24 11:18:23;;;;;;;11.33;8.57;;;14.40;93.00;;;;;;5079489;28;20174;-82
2022/05/24 11:21:02;;;;;;;13.43;7.93;;;14.40;93.10;;;;;;5076148;28;20207;-81
2022/05/24 11:23:50;;;;;;;12.53;7.07;;;14.40;93.20;;;;;;5072256;28;20179;-81
2022/05/24 11:26:24;;;;;;;13.50;7.10;;;14.50;93.10;;;;;;5073732;28;20229;-80
2022/05/24 11:29:33;;;;;;;12.20;7.10;;;14.50;92.90;;;;;;5074936;28;20665;-81
2022/05/24 11:32:06;;;;;;;11.63;6.93;;;14.40;92.90;;;;;;5071397;28;20246;-82
2022/05/24 11:35:01;;;;;;;11.87;7.77;;;14.40;92.90;;;;;;5072789;28;20171;-79
2022/05/24 11:37:34;;;;;;;15.10;7.80;;;14.30;93.00;;;;;;5072388;28;20183;-80
2022/05/24 11:40:25;;;;;;;12.27;7.50;;;14.20;93.00;;;;;;5075929;28;20186;-81
2022/05/24 11:42:52;;;;;;;13.17;7.27;;;14.20;93.20;;;;;;5076295;28;20249;-81
2022/05/24 11:45:34;;;;;;;13.27;7.90;;;14.10;93.30;;;;;;5092788;28;20302;-80
2022/05/24 11:48:08;;;;;;;13.47;7.50;;;14.00;93.30;;;;;;5082865;28;20186;-81
2022/05/24 11:50:35;;;;;;;13.93;8.20;;;14.00;93.40;;;;;;5072580;28;20171;-81
2022/05/24 11:53:05;;;;;;;14.53;7.93;;;14.00;93.60;;;;;;5074776;28;20197;-82
2022/05/24 11:56:10;;;;;;;15.20;8.40;;;13.90;93.60;;;;;;5072746;28;20208;-81
2022/05/24 11:58:37;;;;;;;11.60;8.50;;;13.80;93.60;;;;;;5071016;28;20190;-81
2022/05/24 12:01:32;;;;;;;11.90;8.30;;;13.80;93.70;;;;;;5075611;28;20174;-81
2022/05/24 12:10:31;;;;;;;12.10;9.93;;;13.80;93.80;;;;;;5082461;28;20717;-80
2022/05/24 12:13:05;;;;;;;16.03;9.17;;;13.70;93.80;;;;;;5078271;28;20680;-80
2022/05/24 12:15:33;;;;;;;9.47;7.37;;;13.70;93.80;;;;;;5075233;28;20518;-79
2022/05/24 12:18:00;;;;;;;11.80;8.07;;;13.60;93.70;;;;;;5075723;28;20265;-81
2022/05/24 12:20:36;;;;;;;13.13;8.57;;;13.60;93.90;;;;;;5075951;28;20237;-81
2022/05/24 12:23:15;;;;;;;11.40;8.13;;;13.50;93.80;;;;;;5075012;28;20206;-81
2022/05/24 12:25:58;;;;;;;15.37;8.97;;;13.40;93.80;;;;;;5076140;28;20677;-81
2022/05/24 12:28:39;;;;;;;12.10;8.07;;;13.30;93.80;;;;;;5081117;28;20179;-80
2022/05/24 12:31:11;;;;;;;12.13;8.20;;;13.30;93.90;;;;;;5076477;28;20177;-80
2022/05/24 12:33:54;;;;;;;16.40;9.13;;;13.30;93.90;;;;;;5076358;28;20176;-80
2022/05/24 12:36:23;;;;;;;14.77;10.20;;;13.30;94.00;;;;;;5070198;28;20178;-80
2022/05/24 12:39:12;;;;;;;14.20;9.30;;;13.30;94.10;;;;;;5081425;28;20542;-80
2022/05/24 12:41:48;;;;;;;13.13;8.37;;;13.30;94.20;;;;;;5088632;28;20179;-80
2022/05/24 12:44:24;;;;;;;14.80;9.30;;;13.30;94.10;;;;;;5055571;28;20230;-80
2022/05/24 12:46:54;;;;;;;14.70;10.17;;;13.20;94.10;;;;;;5063745;28;20588;-79
2022/05/24 12:49:24;;;;;;;11.33;9.00;;;13.20;94.20;;;;;;5071001;28;20182;-79
2022/05/24 12:52:22;;;;;;;10.70;9.27;;;13.10;94.30;;;;;;5074353;28;20178;-80
2022/05/24 12:55:06;;;;;;;11.27;9.57;;;13.10;94.40;;;;;;5075840;28;20700;-80
2022/05/24 12:57:47;;;;;;;14.90;9.27;;;13.10;94.40;;;;;;5061576;28;20223;-80
2022/05/24 13:00:24;;;;;;;15.33;9.57;;;13.10;94.40;;;;;;5067839;28;20710;-82
2022/05/24 13:02:54;;;;;;;12.03;9.83;;;13.20;94.40;;;;;;5075756;28;20577;-81
2022/05/24 13:05:28;;;;;;;18.37;10.07;;;13.10;94.40;;;;;;5075442;28;20215;-81
2022/05/24 13:07:59;;;;;;;14.73;8.60;;;13.10;94.40;;;;;;5075262;28;20184;-81
2022/05/24 13:10:29;;;;;;;18.07;9.53;;;13.00;94.30;;;;;;5075697;28;20642;-81
2022/05/24 13:13:03;;;;;;;16.53;10.27;;;13.10;94.50;;;;;;5073989;28;20177;-81
2022/05/24 13:15:37;;;;;;;14.73;9.70;;;13.00;94.50;;;;;;5075543;28;20524;-80
2022/05/24 13:18:14;;;;;;;14.73;9.33;;;13.00;94.50;;;;;;5084268;28;20187;-81
2022/05/24 13:20:47;;;;;;;14.07;9.47;;;13.00;94.60;;;;;;5075302;28;20613;-80
2022/05/24 13:23:15;;;;;;;16.27;9.90;;;13.00;94.50;;;;;;5086870;28;20640;-79
2022/05/24 13:25:58;;;;;;;16.33;9.90;;;12.90;94.40;;;;;;5095715;28;20237;-78
2022/05/24 13:28:48;;;;;;;14.07;9.87;;;12.80;94.40;;;;;;5084443;28;20578;-79
2022/05/24 13:34:17;;;;;;;17.00;9.53;;;12.80;94.40;;;;;;5076431;28;20185;-80
2022/05/24 13:36:51;;;;;;;15.07;9.33;;;12.70;94.50;;;;;;5066187;28;20214;-79
2022/05/24 13:39:46;;;;;;;15.97;10.87;;;12.70;94.60;;;;;;5072770;28;20186;-79
2022/05/24 13:42:28;;;;;;;15.10;11.10;;;12.80;94.70;;;;;;5066119;28;20629;-80
2022/05/24 13:45:18;;;;;;;17.23;12.47;;;12.80;94.80;;;;;;5074567;28;20207;-80
2022/05/24 13:47:47;;;;;;;17.63;12.13;;;12.80;94.70;;;;;;5074668;28;20176;-81
2022/05/24 13:50:36;;;;;;;15.23;11.53;;;12.90;94.80;;;;;;5076565;28;20171;-80
2022/05/24 13:53:10;;;;;;;17.20;11.20;;;12.90;94.90;;;;;;5070830;28;20261;-81
2022/05/24 13:55:40;;;;;;;17.97;11.60;;;13.00;94.90;;;;;;5055107;28;20168;-80